createdAt,value
2023-01-10T00:00:35.475Z,46.00
2023-01-10T00:03:04.357Z,46.04
2023-01-10T00:05:32.961Z,46.05
2023-01-10T00:08:03.730Z,46.02
2023-01-10T00:10:32.485Z,46.08
2023-01-10T00:13:18.920Z,45.90
2023-01-10T00:15:47.697Z,45.98
2023-01-10T00:18:16.510Z,45.96
2023-01-10T00:20:45.890Z,46.21
2023-01-10T00:23:16.238Z,46.06
2023-01-10T00:25:44.983Z,46.06
2023-01-10T00:28:20.369Z,45.78
2023-01-10T00:30:55.004Z,45.94
2023-01-10T00:33:23.893Z,45.80
2023-01-10T00:35:52.623Z,45.89
2023-01-10T00:38:22.724Z,45.83
2023-01-10T00:40:51.340Z,45.83
2023-01-10T00:43:37.331Z,45.67
2023-01-10T00:46:06.314Z,45.97
2023-01-10T00:48:35.233Z,46.00
2023-01-10T00:51:03.875Z,45.87
2023-01-10T00:53:33.949Z,45.71
2023-01-10T00:56:02.658Z,45.64
2023-01-10T00:58:31.243Z,45.76
2023-01-10T01:00:59.962Z,45.78
2023-01-10T01:03:28.659Z,45.80
2023-01-10T01:05:57.194Z,45.69
2023-01-10T01:08:25.848Z,45.71
2023-01-10T01:10:55.798Z,45.84
2023-01-10T01:13:24.488Z,45.76
2023-01-10T01:15:53.035Z,45.80
2023-01-10T01:18:22.603Z,45.76
2023-01-10T01:20:54.304Z,45.76
2023-01-10T01:23:23.178Z,45.63
2023-01-10T01:25:52.481Z,45.60
2023-01-10T01:28:23.186Z,45.47
2023-01-10T01:30:52.049Z,45.62
2023-01-10T01:33:21.029Z,45.47
2023-01-10T01:35:50.267Z,45.52
2023-01-10T01:38:19.391Z,45.61
2023-01-10T01:40:47.967Z,45.42
2023-01-10T01:43:26.932Z,45.41
2023-01-10T01:45:56.059Z,45.45
2023-01-10T01:48:32.426Z,45.56
2023-01-10T01:51:07.922Z,45.35
2023-01-10T01:53:41.099Z,45.47
2023-01-10T01:56:13.645Z,45.45
2023-01-10T01:58:48.929Z,45.32
2023-01-10T02:01:18.257Z,45.40
2023-01-10T02:03:49.531Z,45.32
2023-01-10T02:06:18.247Z,45.42
2023-01-10T02:08:51.923Z,45.31
2023-01-10T02:11:20.683Z,45.33
2023-01-10T02:13:50.708Z,45.38
2023-01-10T02:16:19.361Z,45.24
2023-01-10T02:18:47.974Z,45.31
2023-01-10T02:22:01.126Z,45.00
2023-01-10T02:25:11.696Z,45.30
2023-01-10T02:27:49.282Z,45.21
2023-01-10T02:30:46.555Z,45.17
2023-01-10T02:33:20.575Z,45.09
2023-01-10T02:36:26.817Z,45.19
2023-01-10T02:38:59.873Z,45.07
2023-01-10T02:41:32.309Z,45.03
2023-01-10T02:44:04.643Z,45.16
2023-01-10T02:46:33.436Z,45.14
2023-01-10T02:49:03.570Z,45.09
2023-01-10T02:51:33.583Z,45.17
2023-01-10T02:54:04.809Z,45.14
2023-01-10T02:57:12.848Z,45.07
2023-01-10T03:00:19.129Z,45.08
2023-01-10T03:02:58.624Z,45.05
2023-01-10T03:05:49.818Z,45.04
2023-01-10T03:08:26.652Z,44.98
2023-01-10T03:10:59.202Z,44.81
2023-01-10T03:13:30.355Z,45.00
2023-01-10T03:15:59.076Z,45.03
2023-01-10T03:18:33.053Z,45.09
2023-01-10T03:21:03.798Z,45.04
2023-01-10T03:23:33.059Z,44.99
2023-01-10T03:26:01.684Z,44.93
2023-01-10T03:28:32.850Z,45.01
2023-01-10T03:31:03.620Z,44.98
2023-01-10T03:33:34.027Z,44.97
2023-01-10T03:36:16.748Z,44.93
2023-01-10T03:38:48.202Z,45.04
2023-01-10T03:41:18.329Z,44.98
2023-01-10T03:44:21.438Z,44.92
2023-01-10T03:46:53.724Z,44.78
2023-01-10T03:49:23.417Z,44.98
2023-01-10T03:51:53.694Z,44.96
2023-01-10T03:54:22.318Z,44.92
2023-01-10T03:56:52.079Z,44.88
2023-01-10T03:59:23.384Z,44.92
2023-01-10T04:01:52.573Z,44.77
2023-01-10T04:04:21.370Z,44.84
2023-01-10T04:06:50.094Z,44.76
2023-01-10T04:09:20.189Z,44.80
2023-01-10T04:11:48.763Z,44.79
2023-01-10T04:14:17.357Z,44.91
2023-01-10T04:16:46.533Z,44.92
2023-01-10T04:19:15.130Z,44.85
2023-01-10T04:21:43.660Z,44.71
2023-01-10T04:24:12.684Z,44.83
2023-01-10T04:26:42.563Z,44.67
2023-01-10T04:29:11.197Z,44.89
2023-01-10T04:31:41.052Z,44.70
2023-01-10T04:34:09.920Z,44.63
2023-01-10T04:36:38.760Z,44.83
2023-01-10T04:39:08.272Z,44.76
2023-01-10T04:41:36.933Z,44.76
2023-01-10T04:44:07.378Z,44.66
2023-01-10T04:46:36.297Z,44.72
2023-01-10T04:49:05.183Z,44.74
2023-01-10T04:51:33.875Z,44.78
2023-01-10T04:54:02.576Z,44.67
2023-01-10T04:56:31.205Z,44.74
2023-01-10T04:58:59.726Z,44.79
2023-01-10T05:01:29.897Z,44.69
2023-01-10T05:03:58.545Z,44.58
2023-01-10T05:06:27.602Z,44.79
2023-01-10T05:08:56.333Z,44.67
2023-01-10T05:11:25.105Z,44.72
2023-01-10T05:13:53.703Z,44.58
2023-01-10T05:16:22.488Z,44.67
2023-01-10T05:18:52.393Z,44.47
2023-01-10T05:21:21.146Z,44.64
2023-01-10T05:23:49.791Z,44.46
2023-01-10T05:26:20.047Z,44.63
2023-01-10T05:28:48.615Z,44.46
2023-01-10T05:31:18.637Z,44.52
2023-01-10T05:33:47.782Z,44.48
2023-01-10T05:36:17.915Z,44.42
2023-01-10T05:38:46.952Z,44.55
2023-01-10T05:41:15.512Z,44.42
2023-01-10T05:43:44.353Z,44.59
2023-01-10T05:46:13.223Z,44.55
2023-01-10T05:48:41.790Z,44.50
2023-01-10T05:51:10.329Z,44.53
2023-01-10T05:53:40.424Z,44.45
2023-01-10T05:56:10.586Z,44.56
2023-01-10T05:58:39.386Z,44.50
2023-01-10T06:01:08.383Z,44.36
2023-01-10T06:03:37.248Z,44.44
2023-01-10T06:06:06.555Z,44.46
2023-01-10T06:08:37.211Z,44.54
2023-01-10T06:11:07.419Z,44.56
2023-01-10T06:13:36.174Z,44.70
2023-01-10T06:16:05.368Z,44.49
2023-01-10T06:18:34.893Z,44.37
2023-01-10T06:21:03.490Z,44.60
2023-01-10T06:23:32.566Z,44.64
2023-01-10T06:26:01.322Z,44.71
2023-01-10T06:28:31.412Z,44.89
2023-01-10T06:31:00.045Z,45.03
2023-01-10T06:33:28.908Z,45.46
2023-01-10T06:35:57.531Z,45.23
2023-01-10T06:38:26.271Z,45.08
2023-01-10T06:40:55.162Z,45.24
2023-01-10T06:43:25.840Z,45.09
2023-01-10T06:45:55.958Z,45.35
2023-01-10T06:48:24.747Z,45.30
2023-01-10T06:50:53.251Z,44.34
2023-01-10T06:53:22.170Z,44.75
2023-01-10T06:55:50.699Z,44.75
2023-01-10T06:58:19.496Z,44.40
2023-01-10T07:00:48.083Z,42.30
2023-01-10T07:03:18.169Z,43.28
2023-01-10T07:05:46.808Z,41.82
2023-01-10T07:08:15.447Z,44.70
2023-01-10T07:10:44.165Z,45.02
2023-01-10T07:13:12.884Z,44.52
2023-01-10T07:15:41.525Z,44.24
2023-01-10T07:18:12.661Z,44.31
2023-01-10T07:20:42.768Z,44.18
2023-01-10T07:23:11.576Z,44.16
2023-01-10T07:25:40.189Z,44.37
2023-01-10T07:28:08.854Z,44.32
2023-01-10T07:30:37.737Z,44.46
2023-01-10T07:33:06.449Z,44.34
2023-01-10T07:35:35.187Z,44.50
2023-01-10T07:38:05.304Z,45.11
2023-01-10T07:40:33.811Z,45.71
2023-01-10T07:43:02.938Z,45.93
2023-01-10T07:45:32.053Z,45.90
2023-01-10T07:48:01.022Z,45.78
2023-01-10T07:50:31.674Z,45.39
2023-01-10T07:53:00.952Z,45.49
2023-01-10T07:55:31.292Z,45.18
2023-01-10T07:57:59.977Z,45.98
2023-01-10T08:00:28.856Z,46.52
2023-01-10T08:02:57.735Z,46.43
2023-01-10T08:05:27.386Z,47.34
2023-01-10T08:08:00.018Z,47.49
2023-01-10T08:10:30.281Z,47.33
2023-01-10T08:13:03.875Z,47.40
2023-01-10T08:15:38.708Z,47.19
2023-01-10T08:18:07.589Z,46.94
2023-01-10T08:20:36.200Z,46.37
2023-01-10T08:23:04.975Z,46.47
2023-01-10T08:25:35.012Z,46.38
2023-01-10T08:28:03.664Z,46.21
2023-01-10T08:30:32.383Z,46.24
2023-01-10T08:33:02.955Z,46.76
2023-01-10T08:35:31.894Z,46.88
2023-01-10T08:38:00.995Z,46.24
2023-01-10T08:40:29.567Z,47.06
2023-01-10T08:43:01.163Z,46.42
2023-01-10T08:45:29.927Z,46.65
2023-01-10T08:47:58.570Z,46.22
2023-01-10T08:50:27.411Z,46.35
2023-01-10T08:52:56.128Z,46.26
2023-01-10T08:55:24.849Z,46.17
2023-01-10T08:57:53.634Z,46.14
2023-01-10T09:00:24.892Z,45.96
2023-01-10T09:02:53.684Z,46.02
2023-01-10T09:05:27.451Z,45.87
2023-01-10T09:07:59.931Z,45.66
2023-01-10T09:10:28.642Z,45.64
2023-01-10T09:13:00.105Z,45.36
2023-01-10T09:15:32.518Z,45.59
2023-01-10T09:18:02.378Z,45.67
2023-01-10T09:20:31.307Z,45.68
2023-01-10T09:23:00.981Z,45.44
2023-01-10T09:25:29.814Z,45.46
2023-01-10T09:27:59.442Z,45.40
2023-01-10T09:30:29.985Z,45.67
2023-01-10T09:32:59.040Z,45.53
2023-01-10T09:35:28.203Z,45.77
2023-01-10T09:37:57.162Z,45.60
2023-01-10T09:40:34.999Z,45.76
2023-01-10T09:43:11.748Z,45.60
2023-01-10T09:45:48.902Z,45.74
2023-01-10T09:48:22.039Z,45.39
2023-01-10T09:51:01.820Z,46.03
2023-01-10T09:53:32.223Z,45.98
2023-01-10T09:56:01.136Z,46.05
2023-01-10T09:58:31.654Z,46.13
2023-01-10T10:01:02.915Z,46.06
2023-01-10T10:03:36.023Z,46.24
2023-01-10T10:06:12.077Z,46.14
2023-01-10T10:08:41.314Z,46.30
2023-01-10T10:11:47.512Z,46.19
2023-01-10T10:14:27.393Z,46.33
2023-01-10T10:17:27.792Z,47.39
2023-01-10T10:20:07.628Z,46.74
2023-01-10T10:22:43.581Z,46.41
2023-01-10T10:25:24.076Z,46.84
2023-01-10T10:28:05.671Z,46.46
2023-01-10T10:30:44.230Z,46.65
2023-01-10T10:33:27.267Z,46.54
2023-01-10T10:36:00.114Z,47.01
2023-01-10T10:38:31.078Z,46.80
2023-01-10T10:41:00.604Z,47.09
2023-01-10T10:43:33.459Z,47.59
2023-01-10T10:46:04.716Z,47.57
2023-01-10T10:48:35.874Z,48.01
2023-01-10T10:51:08.781Z,48.29
2023-01-10T10:53:37.415Z,46.67
2023-01-10T10:56:07.973Z,45.91
2023-01-10T10:58:36.671Z,45.98
2023-01-10T11:01:05.522Z,46.72
2023-01-10T11:03:41.350Z,46.75
2023-01-10T11:06:10.190Z,47.87
2023-01-10T11:08:42.446Z,48.23
2023-01-10T11:11:18.845Z,48.25
2023-01-10T11:13:50.657Z,48.16
2023-01-10T11:16:31.239Z,48.89
2023-01-10T11:19:21.568Z,47.52
2023-01-10T11:21:53.874Z,47.66
2023-01-10T11:24:28.845Z,48.79
2023-01-10T11:26:58.041Z,48.54
2023-01-10T11:29:28.741Z,48.83
2023-01-10T11:31:58.079Z,49.01
2023-01-10T11:34:30.873Z,49.45
2023-01-10T11:37:01.353Z,49.06
2023-01-10T11:39:30.941Z,49.45
2023-01-10T11:42:00.418Z,49.57
2023-01-10T11:44:30.021Z,49.52
2023-01-10T11:47:02.771Z,49.76
2023-01-10T11:49:35.857Z,49.09
2023-01-10T11:52:06.532Z,49.63
2023-01-10T11:54:35.208Z,50.34
2023-01-10T11:57:05.219Z,49.25
2023-01-10T11:59:34.119Z,49.06
2023-01-10T12:02:05.143Z,50.08
2023-01-10T12:04:36.168Z,50.33
2023-01-10T12:07:09.013Z,50.15
2023-01-10T12:09:42.370Z,50.65
2023-01-10T12:12:20.584Z,50.64
2023-01-10T12:14:49.487Z,51.32
2023-01-10T12:17:27.259Z,51.21
2023-01-10T12:20:01.960Z,51.19
2023-01-10T12:22:33.574Z,51.14
2023-01-10T12:25:03.070Z,51.04
2023-01-10T12:27:31.650Z,50.83
2023-01-10T12:30:05.798Z,50.65
2023-01-10T12:32:41.139Z,50.80
2023-01-10T12:35:16.445Z,50.64
2023-01-10T12:37:49.721Z,50.64
2023-01-10T12:40:22.794Z,50.69
2023-01-10T12:43:13.164Z,50.65
2023-01-10T12:45:45.206Z,50.57
2023-01-10T12:48:23.923Z,50.62
2023-01-10T12:50:58.812Z,50.45
2023-01-10T12:53:33.080Z,50.58
2023-01-10T12:56:05.144Z,50.26
2023-01-10T12:58:43.153Z,50.52
2023-01-10T13:01:14.411Z,50.31
2023-01-10T13:03:43.284Z,50.37
2023-01-10T13:06:16.874Z,50.31
2023-01-10T13:08:45.763Z,50.26
2023-01-10T13:11:14.842Z,50.28
2023-01-10T13:13:45.375Z,50.20
2023-01-10T13:16:29.342Z,50.12
2023-01-10T13:19:04.661Z,50.01
2023-01-10T13:21:35.174Z,49.99
2023-01-10T13:24:05.002Z,49.87
2023-01-10T13:26:53.250Z,49.86
2023-01-10T13:29:23.674Z,49.85
2023-01-10T13:31:57.694Z,49.73
2023-01-10T13:34:28.734Z,49.86
2023-01-10T13:37:00.455Z,49.78
2023-01-10T13:39:32.630Z,49.65
2023-01-10T13:42:50.107Z,49.73
2023-01-10T13:45:21.577Z,49.50
2023-01-10T13:48:28.077Z,49.51
2023-01-10T13:51:15.453Z,49.64
2023-01-10T13:54:01.353Z,49.44
2023-01-10T13:56:40.797Z,49.57
2023-01-10T13:59:32.657Z,49.58
2023-01-10T14:02:19.894Z,49.40
2023-01-10T14:04:51.428Z,49.40
2023-01-10T14:07:25.614Z,49.51
2023-01-10T14:10:02.570Z,49.18
2023-01-10T14:12:36.087Z,49.13
2023-01-10T14:15:22.075Z,49.24
2023-01-10T14:17:58.160Z,49.20
2023-01-10T14:20:27.057Z,49.24
2023-01-10T14:23:05.451Z,49.40
2023-01-10T14:25:37.189Z,49.34
2023-01-10T14:28:06.160Z,49.16
2023-01-10T14:30:36.495Z,48.73
2023-01-10T14:33:08.655Z,49.32
2023-01-10T14:35:40.369Z,49.25
2023-01-10T14:38:09.707Z,49.30
2023-01-10T14:40:43.290Z,49.18
2023-01-10T14:43:16.912Z,49.06
2023-01-10T14:45:50.934Z,48.87
2023-01-10T14:48:30.390Z,49.37
2023-01-10T14:51:18.187Z,49.45
2023-01-10T14:53:46.755Z,49.38
2023-01-10T14:56:22.136Z,49.14
2023-01-10T14:58:50.715Z,49.01
2023-01-10T15:01:24.574Z,48.99
2023-01-10T15:03:53.674Z,49.44
2023-01-10T15:06:23.592Z,49.34
2023-01-10T15:09:03.344Z,49.25
2023-01-10T15:11:34.324Z,49.21
2023-01-10T15:14:07.829Z,49.17
2023-01-10T15:16:38.968Z,49.25
2023-01-10T15:19:07.651Z,49.14
2023-01-10T15:21:36.410Z,49.05
2023-01-10T15:24:12.507Z,49.07
2023-01-10T15:26:42.688Z,48.90
2023-01-10T15:29:14.285Z,48.99
2023-01-10T15:31:43.013Z,48.90
2023-01-10T15:34:15.754Z,49.21
2023-01-10T15:36:46.441Z,48.86
2023-01-10T15:39:21.688Z,49.21
2023-01-10T15:41:51.675Z,49.35
2023-01-10T15:44:25.245Z,49.28
2023-01-10T15:46:57.030Z,49.07
2023-01-10T15:49:26.316Z,49.35
2023-01-10T15:51:54.948Z,49.14
2023-01-10T15:54:33.380Z,49.12
2023-01-10T15:57:07.892Z,49.08
2023-01-10T15:59:39.422Z,49.04
2023-01-10T16:02:22.759Z,49.03
2023-01-10T16:04:52.259Z,48.88
2023-01-10T16:07:25.616Z,48.62
2023-01-10T16:09:57.779Z,49.00
2023-01-10T16:12:51.944Z,48.82
2023-01-10T16:15:22.826Z,48.99
2023-01-10T16:17:51.960Z,48.71
2023-01-10T16:20:22.251Z,48.56
2023-01-10T16:22:50.847Z,49.08
2023-01-10T16:25:21.668Z,49.02
2023-01-10T16:27:51.589Z,49.08
2023-01-10T16:30:24.694Z,48.88
2023-01-10T16:32:53.606Z,49.04
2023-01-10T16:35:22.311Z,49.92
2023-01-10T16:37:51.052Z,50.04
2023-01-10T16:40:22.517Z,49.38
2023-01-10T16:43:10.194Z,49.10
2023-01-10T16:45:38.749Z,49.21
2023-01-10T16:48:07.910Z,49.38
2023-01-10T16:50:36.526Z,49.57
2023-01-10T16:53:06.385Z,49.67
2023-01-10T16:55:41.055Z,49.81
2023-01-10T16:58:11.475Z,50.84
2023-01-10T17:00:40.711Z,50.17
2023-01-10T17:03:12.295Z,50.32
2023-01-10T17:05:40.898Z,49.79
2023-01-10T17:08:12.447Z,49.97
2023-01-10T17:10:41.056Z,50.71
2023-01-10T17:13:11.244Z,51.00
2023-01-10T17:15:39.855Z,50.65
2023-01-10T17:18:08.820Z,49.68
2023-01-10T17:20:37.490Z,51.07
2023-01-10T17:23:06.253Z,50.66
2023-01-10T17:25:35.092Z,49.80
2023-01-10T17:28:03.838Z,49.48
2023-01-10T17:30:33.828Z,51.04
2023-01-10T17:33:02.540Z,51.06
2023-01-10T17:35:32.553Z,50.52
2023-01-10T17:38:01.436Z,50.72
2023-01-10T17:40:30.054Z,50.53
2023-01-10T17:42:58.785Z,49.88
2023-01-10T17:45:27.435Z,50.15
2023-01-10T17:47:58.336Z,49.89
2023-01-10T17:50:26.996Z,49.94
2023-01-10T17:52:56.307Z,49.89
2023-01-10T17:55:25.090Z,49.83
2023-01-10T17:57:53.685Z,49.66
2023-01-10T18:00:22.813Z,49.25
2023-01-10T18:02:51.623Z,49.62
2023-01-10T18:05:21.684Z,49.51
2023-01-10T18:07:50.544Z,49.10
2023-01-10T18:10:19.359Z,49.32
2023-01-10T18:12:47.993Z,49.30
2023-01-10T18:15:16.911Z,49.46
2023-01-10T18:17:45.811Z,49.37
2023-01-10T18:20:14.444Z,49.50
2023-01-10T18:23:04.686Z,49.43
2023-01-10T18:25:33.598Z,49.49
2023-01-10T18:28:02.372Z,49.32
2023-01-10T18:30:31.169Z,48.92
2023-01-10T18:32:59.984Z,49.20
2023-01-10T18:35:30.297Z,49.06
2023-01-10T18:38:00.553Z,49.09
2023-01-10T18:40:29.294Z,49.35
2023-01-10T18:42:58.698Z,49.03
2023-01-10T18:45:29.953Z,49.63
2023-01-10T18:47:59.342Z,49.61
2023-01-10T18:50:28.075Z,49.80
2023-01-10T18:52:57.668Z,49.05
2023-01-10T18:55:27.759Z,49.67
2023-01-10T18:57:56.332Z,49.14
2023-01-10T19:00:25.690Z,49.91
2023-01-10T19:02:57.798Z,49.74
2023-01-10T19:05:27.417Z,50.44
2023-01-10T19:07:56.114Z,50.30
2023-01-10T19:10:24.691Z,50.70
2023-01-10T19:12:54.708Z,50.78
2023-01-10T19:15:23.899Z,50.03
2023-01-10T19:17:52.570Z,50.06
2023-01-10T19:20:21.691Z,50.23
2023-01-10T19:22:50.298Z,50.33
2023-01-10T19:25:19.069Z,50.32
2023-01-10T19:27:47.730Z,50.31
2023-01-10T19:30:18.736Z,50.11
2023-01-10T19:32:47.445Z,50.24
2023-01-10T19:35:16.217Z,49.92
2023-01-10T19:37:44.803Z,49.68
2023-01-10T19:40:14.598Z,49.60
2023-01-10T19:42:43.327Z,49.81
2023-01-10T19:45:12.195Z,50.09
2023-01-10T19:47:42.264Z,49.72
2023-01-10T19:50:12.799Z,49.73
2023-01-10T19:52:41.553Z,49.87
2023-01-10T19:55:10.921Z,49.76
2023-01-10T19:57:39.763Z,49.84
2023-01-10T20:00:09.962Z,49.78
2023-01-10T20:02:38.710Z,49.49
2023-01-10T20:05:10.253Z,49.53
2023-01-10T20:07:38.960Z,49.79
2023-01-10T20:10:08.490Z,49.65
2023-01-10T20:12:37.090Z,49.40
2023-01-10T20:15:06.783Z,49.72
2023-01-10T20:17:35.605Z,49.63
2023-01-10T20:20:04.388Z,49.64
2023-01-10T20:22:34.334Z,49.71
2023-01-10T20:25:03.015Z,49.51
2023-01-10T20:27:31.797Z,49.44
2023-01-10T20:30:00.383Z,49.53
2023-01-10T20:32:29.096Z,49.42
2023-01-10T20:34:57.929Z,49.32
2023-01-10T20:37:26.617Z,49.23
2023-01-10T20:39:57.186Z,49.07
2023-01-10T20:42:25.831Z,49.00
2023-01-10T20:44:54.425Z,49.01
2023-01-10T20:47:23.477Z,49.31
2023-01-10T20:49:52.045Z,49.29
2023-01-10T20:52:20.580Z,49.14
2023-01-10T20:54:49.322Z,49.47
2023-01-10T20:57:19.288Z,49.36
2023-01-10T20:59:47.895Z,49.27
2023-01-10T21:02:16.631Z,49.12
2023-01-10T21:04:45.262Z,49.06
2023-01-10T21:07:13.924Z,48.95
2023-01-10T21:09:42.779Z,48.95
2023-01-10T21:12:22.976Z,49.08
2023-01-10T21:14:53.884Z,49.03
2023-01-10T21:17:23.116Z,49.03
2023-01-10T21:19:51.680Z,49.00
2023-01-10T21:22:20.487Z,48.78
2023-01-10T21:24:49.980Z,48.85
2023-01-10T21:27:18.683Z,48.72
2023-01-10T21:29:47.314Z,48.68
2023-01-10T21:32:17.377Z,48.62
2023-01-10T21:34:46.060Z,48.62
2023-01-10T21:37:14.635Z,48.78
2023-01-10T21:39:43.752Z,48.78
2023-01-10T21:42:30.384Z,48.66
2023-01-10T21:44:59.188Z,48.58
2023-01-10T21:47:29.431Z,48.72
2023-01-10T21:49:58.011Z,48.75
2023-01-10T21:52:26.885Z,48.52
2023-01-10T21:54:55.916Z,48.73
2023-01-10T21:57:24.544Z,48.53
2023-01-10T21:59:53.406Z,48.52
2023-01-10T22:02:22.598Z,48.48
2023-01-10T22:04:54.949Z,48.55
2023-01-10T22:07:24.168Z,48.51
2023-01-10T22:09:52.684Z,48.43
2023-01-10T22:12:23.435Z,48.34
2023-01-10T22:14:52.185Z,48.13
2023-01-10T22:17:20.753Z,48.27
2023-01-10T22:19:49.407Z,48.34
2023-01-10T22:22:19.668Z,48.19
2023-01-10T22:24:48.367Z,48.30
2023-01-10T22:27:17.033Z,48.12
2023-01-10T22:29:45.972Z,48.04
2023-01-10T22:32:14.629Z,48.06
2023-01-10T22:34:46.255Z,48.11
2023-01-10T22:37:14.883Z,48.03
2023-01-10T22:39:47.016Z,48.01
2023-01-10T22:42:17.163Z,48.05
2023-01-10T22:44:45.815Z,48.00
2023-01-10T22:47:14.388Z,48.02
2023-01-10T22:49:43.115Z,47.97
2023-01-10T22:52:11.765Z,47.92
2023-01-10T22:54:40.360Z,48.11
2023-01-10T22:57:10.454Z,47.80
2023-01-10T22:59:44.118Z,47.83
2023-01-10T23:02:14.217Z,47.93
2023-01-10T23:04:42.879Z,47.83
2023-01-10T23:07:13.131Z,47.82
2023-01-10T23:09:41.816Z,47.86
2023-01-10T23:12:11.804Z,47.71
2023-01-10T23:14:40.396Z,47.74
2023-01-10T23:17:09.035Z,47.88
2023-01-10T23:19:37.721Z,47.17
2023-01-10T23:22:06.274Z,47.66
2023-01-10T23:24:34.957Z,47.60
2023-01-10T23:27:03.524Z,47.75
2023-01-10T23:29:33.567Z,47.58
2023-01-10T23:32:02.270Z,47.54
2023-01-10T23:34:30.938Z,47.54
2023-01-10T23:36:59.483Z,47.60
2023-01-10T23:39:29.511Z,47.51
2023-01-10T23:41:58.093Z,47.61
2023-01-10T23:44:29.100Z,47.63
2023-01-10T23:46:59.104Z,47.60
2023-01-10T23:49:27.837Z,47.44
2023-01-10T23:51:56.408Z,47.57
2023-01-10T23:54:25.143Z,47.42
2023-01-10T23:56:53.709Z,47.34
2023-01-10T23:59:22.589Z,47.30
